JST600A YMML-YMML

Flight info

Callsign JST600A
Flight time 0h 25m
Altitude 11000
Route DOSEL DCT BOOIN
Aircraft A321/M-SDE/LBA

Departure

Time 2026-05-04 04:05
Airport Melbourne Airport (YMML)

Arrival

Time 2026-05-04 04:31
Airport Melbourne Airport (YMML)
Time Latitude Longitude Altitude Speed Heading
2026-05-04 04:02 -37.67663 144.84573 375 ft 2 kts 172°
2026-05-04 04:02 -37.67697 144.84578 374 ft 7 kts 172°
2026-05-04 04:03 -37.67765 144.84590 372 ft 11 kts 172°
2026-05-04 04:03 -37.67823 144.84526 368 ft 14 kts 258°
2026-05-04 04:03 -37.67829 144.84479 367 ft 14 kts 262°
2026-05-04 04:03 -37.67836 144.84416 367 ft 14 kts 262°
2026-05-04 04:04 -37.67851 144.84290 366 ft 15 kts 262°
2026-05-04 04:04 -37.67865 144.84152 362 ft 16 kts 263°
2026-05-04 04:04 -37.67868 144.84023 360 ft 14 kts 285°
2026-05-04 04:04 -37.67795 144.83955 361 ft 13 kts 352°
2026-05-04 04:05 -37.67545 144.83911 370 ft 68 kts 352°
2026-05-04 04:05 -37.66851 144.83783 392 ft 129 kts 353°
2026-05-04 04:05 -37.65870 144.83614 754 ft 148 kts 353°
2026-05-04 04:05 -37.64842 144.83453 1368 ft 154 kts 352°
2026-05-04 04:06 -37.63782 144.83278 2076 ft 155 kts 350°
2026-05-04 04:06 -37.62696 144.83072 2457 ft 162 kts 349°
2026-05-04 04:06 -37.61544 144.82809 2790 ft 173 kts 347°
2026-05-04 04:06 -37.60307 144.82529 3043 ft 191 kts 349°
2026-05-04 04:07 -37.58907 144.82581 3330 ft 214 kts
2026-05-04 04:07 -37.57436 144.83267 3696 ft 235 kts 19°
2026-05-04 04:07 -37.55918 144.84166 4234 ft 246 kts 20°
2026-05-04 04:07 -37.54373 144.85112 4972 ft 249 kts 20°
2026-05-04 04:08 -37.52828 144.86057 5703 ft 252 kts 19°
2026-05-04 04:08 -37.51238 144.87024 6440 ft 255 kts 19°
2026-05-04 04:08 -37.49634 144.87996 7168 ft 259 kts 19°
2026-05-04 04:08 -37.48017 144.88977 7885 ft 263 kts 19°
2026-05-04 04:09 -37.46354 144.89984 8613 ft 268 kts 19°
2026-05-04 04:09 -37.44693 144.91049 9307 ft 276 kts 26°
2026-05-04 04:09 -37.43178 144.92584 9964 ft 289 kts 40°
2026-05-04 04:09 -37.41890 144.94606 10547 ft 302 kts 48°
2026-05-04 04:10 -37.40653 144.96800 10884 ft 319 kts 49°
2026-05-04 04:10 -37.39319 144.99202 10999 ft 343 kts 50°
2026-05-04 04:10 -37.37943 145.01680 11006 ft 352 kts 50°
2026-05-04 04:10 -37.36533 145.04216 10969 ft 352 kts 50°
2026-05-04 04:11 -37.35133 145.06720 10924 ft 352 kts 50°
2026-05-04 04:11 -37.33711 145.09251 10909 ft 352 kts 50°
2026-05-04 04:11 -37.32310 145.11728 10906 ft 352 kts 50°
2026-05-04 04:11 -37.30882 145.14252 10900 ft 352 kts 50°
2026-05-04 04:12 -37.29466 145.16746 10902 ft 352 kts 50°
2026-05-04 04:12 -37.28048 145.19246 10903 ft 352 kts 49°
2026-05-04 04:12 -37.26632 145.21739 10905 ft 351 kts 49°
2026-05-04 04:12 -37.25225 145.24211 10906 ft 351 kts 49°
2026-05-04 04:13 -37.23798 145.26718 10901 ft 351 kts 49°
2026-05-04 04:13 -37.22379 145.29210 10898 ft 352 kts 49°
2026-05-04 04:13 -37.20947 145.31722 10902 ft 351 kts 49°
2026-05-04 04:13 -37.19613 145.34250 10897 ft 356 kts 58°
2026-05-04 04:14 -37.18994 145.37306 10898 ft 366 kts 84°
2026-05-04 04:14 -37.19405 145.40449 10907 ft 371 kts 109°
2026-05-04 04:14 -37.20775 145.43159 10906 ft 373 kts 134°
2026-05-04 04:14 -37.22843 145.45131 10923 ft 371 kts 148°
2026-05-04 04:15 -37.24996 145.46855 10916 ft 371 kts 149°
2026-05-04 04:15 -37.27186 145.48612 10916 ft 372 kts 149°
2026-05-04 04:15 -37.29357 145.50392 10918 ft 371 kts 148°
2026-05-04 04:15 -37.31493 145.52181 10894 ft 372 kts 148°
2026-05-04 04:16 -37.33649 145.54005 10644 ft 368 kts 147°
2026-05-04 04:16 -37.35738 145.55783 10334 ft 362 kts 147°
2026-05-04 04:16 -37.37809 145.57548 10030 ft 357 kts 147°
2026-05-04 04:16 -37.39824 145.59268 9812 ft 349 kts 147°
2026-05-04 04:17 -37.41929 145.60727 9591 ft 336 kts 165°
2026-05-04 04:17 -37.44167 145.61083 9442 ft 310 kts 191°
2026-05-04 04:17 -37.46160 145.60435 9317 ft 294 kts 212°
2026-05-04 04:17 -37.47839 145.59009 9195 ft 283 kts 231°
2026-05-04 04:18 -37.49059 145.57132 9077 ft 277 kts 241°
2026-05-04 04:18 -37.50157 145.55165 9019 ft 275 kts 242°
2026-05-04 04:18 -37.51263 145.53174 9013 ft 276 kts 242°
2026-05-04 04:18 -37.52372 145.51210 9010 ft 276 kts 241°
2026-05-04 04:19 -37.53503 145.49242 9006 ft 276 kts 241°
2026-05-04 04:19 -37.54639 145.47279 9002 ft 276 kts 241°
2026-05-04 04:19 -37.55761 145.45343 9000 ft 276 kts 241°
2026-05-04 04:19 -37.56891 145.43390 8999 ft 276 kts 240°
2026-05-04 04:20 -37.58034 145.41420 8998 ft 276 kts 240°
2026-05-04 04:20 -37.59159 145.39475 8997 ft 276 kts 240°
2026-05-04 04:20 -37.60287 145.37527 8998 ft 276 kts 241°
2026-05-04 04:20 -37.61414 145.35580 9000 ft 275 kts 241°
2026-05-04 04:21 -37.62539 145.33632 8949 ft 276 kts 241°
2026-05-04 04:21 -37.63665 145.31682 8803 ft 274 kts 240°
2026-05-04 04:21 -37.64802 145.29712 8627 ft 275 kts 240°
2026-05-04 04:21 -37.65921 145.27774 8430 ft 274 kts 241°
2026-05-04 04:22 -37.67041 145.25833 8163 ft 273 kts 241°
2026-05-04 04:22 -37.68161 145.23894 7842 ft 273 kts 241°
2026-05-04 04:22 -37.69274 145.21959 7510 ft 272 kts 241°
2026-05-04 04:22 -37.70387 145.20024 7159 ft 273 kts 241°
2026-05-04 04:23 -37.71489 145.18108 6809 ft 273 kts 242°
2026-05-04 04:23 -37.72611 145.16162 6447 ft 274 kts 242°
2026-05-04 04:23 -37.73738 145.14201 6096 ft 274 kts 242°
2026-05-04 04:23 -37.74835 145.12294 5867 ft 269 kts 242°
2026-05-04 04:24 -37.75934 145.10385 5699 ft 262 kts 242°
2026-05-04 04:24 -37.76981 145.08568 5502 ft 253 kts 242°
2026-05-04 04:24 -37.78003 145.06786 5251 ft 249 kts 243°
2026-05-04 04:24 -37.79009 145.05026 5023 ft 246 kts 243°
2026-05-04 04:25 -37.80013 145.03268 4771 ft 244 kts 243°
2026-05-04 04:25 -37.80974 145.01502 4418 ft 243 kts 249°
2026-05-04 04:25 -37.81596 144.99589 4189 ft 232 kts 263°
2026-05-04 04:25 -37.81966 144.97636 3960 ft 222 kts 266°
2026-05-04 04:26 -37.82284 144.95785 3762 ft 212 kts 267°
2026-05-04 04:26 -37.82570 144.94017 3553 ft 200 kts 270°
2026-05-04 04:26 -37.82779 144.92316 3344 ft 189 kts 271°
2026-05-04 04:26 -37.82973 144.90692 3075 ft 189 kts 271°
2026-05-04 04:27 -37.83137 144.89015 2642 ft 195 kts 278°
2026-05-04 04:27 -37.82722 144.87517 2458 ft 179 kts 319°
2026-05-04 04:27 -37.81643 144.86743 2484 ft 178 kts 341°
2026-05-04 04:27 -37.80431 144.86365 2475 ft 179 kts 347°
2026-05-04 04:28 -37.79259 144.86112 2464 ft 163 kts 349°
2026-05-04 04:28 -37.78177 144.85907 2228 ft 152 kts 349°
2026-05-04 04:28 -37.77166 144.85719 2045 ft 138 kts 350°
2026-05-04 04:28 -37.76254 144.85548 1849 ft 130 kts 349°
2026-05-04 04:29 -37.75359 144.85379 1625 ft 128 kts 351°
2026-05-04 04:29 -37.74474 144.85220 1436 ft 127 kts 350°
2026-05-04 04:29 -37.73604 144.85049 1258 ft 127 kts 351°
2026-05-04 04:29 -37.72730 144.84886 1124 ft 127 kts 351°
2026-05-04 04:30 -37.71846 144.84726 953 ft 126 kts 351°
2026-05-04 04:30 -37.70981 144.84555 804 ft 126 kts 352°
2026-05-04 04:30 -37.70113 144.84396 652 ft 126 kts 352°
2026-05-04 04:30 -37.69255 144.84230 482 ft 124 kts 352°
2026-05-04 04:31 -37.68403 144.84068 360 ft 122 kts 354°
2026-05-04 04:31 -37.67652 144.83934 367 ft 85 kts 351°
2026-05-04 04:31 -37.67233 144.83856 378 ft 36 kts 353°
2026-05-04 04:31 -37.67036 144.83835 386 ft 21 kts
2026-05-04 04:32 -37.66929 144.83870 390 ft 12 kts 20°
2026-05-04 04:32 -37.66855 144.83905 392 ft 10 kts 20°
2026-05-04 04:32 -37.66791 144.83936 393 ft 9 kts 24°
2026-05-04 04:32 -37.66723 144.84024 395 ft 20 kts 73°
2026-05-04 04:33 -37.66794 144.84184 391 ft 23 kts 157°
2026-05-04 04:33 -37.66959 144.84224 388 ft 24 kts 171°
2026-05-04 04:33 -37.67129 144.84256 384 ft 25 kts 171°
2026-05-04 04:33 -37.67304 144.84290 381 ft 25 kts 171°
2026-05-04 04:34 -37.67484 144.84323 377 ft 26 kts 171°
2026-05-04 04:34 -37.67662 144.84386 372 ft 27 kts 143°
2026-05-04 04:34 -37.67773 144.84566 371 ft 25 kts 96°
2026-05-04 04:34 -37.67702 144.84717 377 ft 19 kts 353°
2026-05-04 04:35 -37.67646 144.84706 379 ft 0 kts 352°